createdAt,value
2018-01-08T00:02:07.935Z,94728.51
2018-01-08T00:04:35.634Z,94718.43
2018-01-08T00:07:03.349Z,94703.39
2018-01-08T00:09:31.042Z,94713.09
2018-01-08T00:11:58.799Z,94713.24
2018-01-08T00:14:26.500Z,94718.84
2018-01-08T00:16:54.286Z,94711.69
2018-01-08T00:19:21.957Z,94717.33
2018-01-08T00:21:49.690Z,94724.25
2018-01-08T00:24:17.456Z,94722.33
2018-01-08T00:26:45.167Z,94721.39
2018-01-08T00:29:12.902Z,94728.58
2018-01-08T00:31:40.580Z,94730.12
2018-01-08T00:34:08.281Z,94725.08
2018-01-08T00:36:36.007Z,94727.30
2018-01-08T00:39:03.830Z,94734.79
2018-01-08T00:41:31.573Z,94739.56
2018-01-08T00:43:59.365Z,94735.59
2018-01-08T00:46:27.102Z,94740.70
2018-01-08T00:48:54.818Z,94739.36
2018-01-08T00:51:22.564Z,94739.63
2018-01-08T00:53:50.279Z,94738.22
2018-01-08T00:56:18.052Z,94733.31
2018-01-08T00:58:45.794Z,94738.15
2018-01-08T01:01:13.490Z,94742.72
2018-01-08T01:03:41.214Z,94737.03
2018-01-08T01:06:09.022Z,94735.02
2018-01-08T01:08:36.759Z,94748.42
2018-01-08T01:11:04.447Z,94741.77
2018-01-08T01:13:32.181Z,94740.63
2018-01-08T01:15:59.873Z,94741.77
2018-01-08T01:18:28.866Z,94737.70
2018-01-08T01:20:56.560Z,94741.06
2018-01-08T01:23:24.306Z,94740.46
2018-01-08T01:25:52.024Z,94737.84
2018-01-08T01:28:19.854Z,94747.15
2018-01-08T01:30:47.565Z,94749.91
2018-01-08T01:33:15.268Z,94735.33
2018-01-08T01:35:43.013Z,94736.41
2018-01-08T01:38:10.707Z,94740.30
2018-01-08T01:40:38.539Z,94741.07
2018-01-08T01:43:06.272Z,94740.16
2018-01-08T01:45:33.946Z,94740.60
2018-01-08T01:48:01.671Z,94735.87
2018-01-08T01:50:29.371Z,94731.30
2018-01-08T01:52:57.052Z,94734.39
2018-01-08T01:55:24.784Z,94737.48
2018-01-08T01:57:52.514Z,94742.31
2018-01-08T02:00:20.279Z,94737.81
2018-01-08T02:02:48.016Z,94746.74
2018-01-08T02:05:15.798Z,94736.00
2018-01-08T02:07:43.459Z,94740.43
2018-01-08T02:10:12.202Z,94743.79
2018-01-08T02:12:39.891Z,94741.51
2018-01-08T02:15:07.849Z,94745.67
2018-01-08T02:17:35.679Z,94743.39
2018-01-08T02:20:03.381Z,94737.41
2018-01-08T02:22:31.147Z,94742.84
2018-01-08T02:24:58.888Z,94740.83
2018-01-08T02:27:26.612Z,94742.81
2018-01-08T02:29:54.352Z,94745.84
2018-01-08T02:32:22.112Z,94755.17
2018-01-08T02:34:49.806Z,94745.97
2018-01-08T02:37:17.574Z,94744.48
2018-01-08T02:39:45.323Z,94744.35
2018-01-08T02:42:13.068Z,94740.82
2018-01-08T02:44:40.833Z,94750.10
2018-01-08T02:47:08.622Z,94749.83
2018-01-08T02:49:36.335Z,94747.22
2018-01-08T02:52:04.023Z,94750.77
2018-01-08T02:54:31.755Z,94746.61
2018-01-08T02:56:59.484Z,94743.45
2018-01-08T02:59:27.163Z,94749.73
2018-01-08T03:01:54.857Z,94756.78
2018-01-08T03:04:22.600Z,94765.01
2018-01-08T03:06:50.341Z,94764.06
2018-01-08T03:09:18.086Z,94763.26
2018-01-08T03:11:45.768Z,94766.62
2018-01-08T03:14:13.508Z,94772.13
2018-01-08T03:16:41.212Z,94775.34
2018-01-08T03:19:09.002Z,94775.88
2018-01-08T03:21:36.775Z,94772.53
2018-01-08T03:24:04.460Z,94753.73
2018-01-08T03:26:32.151Z,94769.73
2018-01-08T03:28:59.901Z,94757.42
2018-01-08T03:31:27.929Z,94759.77
2018-01-08T03:33:55.683Z,94768.63
2018-01-08T03:36:23.376Z,94774.81
2018-01-08T03:38:51.090Z,94782.60
2018-01-08T03:41:18.844Z,94779.25
2018-01-08T03:43:46.545Z,94776.33
2018-01-08T03:46:14.285Z,94770.28
2018-01-08T03:48:42.012Z,94777.06
2018-01-08T03:51:09.748Z,94778.04
2018-01-08T03:53:37.455Z,94781.09
2018-01-08T03:56:06.147Z,94792.61
2018-01-08T03:58:33.828Z,94787.50
2018-01-08T04:01:01.527Z,94778.30
2018-01-08T04:03:29.233Z,94778.20
2018-01-08T04:05:56.979Z,94782.06
2018-01-08T04:08:24.685Z,94789.36
2018-01-08T04:10:52.367Z,94791.58
2018-01-08T04:13:20.086Z,94794.33
2018-01-08T04:15:47.812Z,94800.00
2018-01-08T04:18:15.611Z,94805.70
2018-01-08T04:20:43.352Z,94801.60
2018-01-08T04:23:11.078Z,94798.45
2018-01-08T04:25:38.800Z,94808.45
2018-01-08T04:28:06.502Z,94803.33
2018-01-08T04:30:34.238Z,94797.95
2018-01-08T04:33:01.941Z,94795.53
2018-01-08T04:35:29.709Z,94788.48
2018-01-08T04:37:57.404Z,94795.22
2018-01-08T04:40:25.181Z,94803.75
2018-01-08T04:42:52.872Z,94798.39
2018-01-08T04:45:20.610Z,94798.39
2018-01-08T04:47:48.324Z,94801.45
2018-01-08T04:50:16.083Z,94803.16
2018-01-08T04:52:43.813Z,94802.19
2018-01-08T04:55:11.590Z,94801.38
2018-01-08T04:57:39.360Z,94796.17
2018-01-08T05:00:07.109Z,94793.81
2018-01-08T05:02:34.898Z,94794.95
2018-01-08T05:05:02.640Z,94789.17
2018-01-08T05:07:30.368Z,94788.98
2018-01-08T05:09:58.106Z,94789.49
2018-01-08T05:12:25.949Z,94782.51
2018-01-08T05:14:53.646Z,94781.91
2018-01-08T05:17:21.379Z,94777.60
2018-01-08T05:19:49.123Z,94788.42
2018-01-08T05:22:16.827Z,94796.20
2018-01-08T05:24:44.546Z,94800.03
2018-01-08T05:27:12.235Z,94810.41
2018-01-08T05:29:39.962Z,94808.50
2018-01-08T05:32:07.656Z,94813.34
2018-01-08T05:34:35.404Z,94811.16
2018-01-08T05:37:03.337Z,94811.30
2018-01-08T05:39:31.118Z,94809.21
2018-01-08T05:41:58.818Z,94806.62
2018-01-08T05:44:26.571Z,94808.56
2018-01-08T05:46:54.240Z,94819.73
2018-01-08T05:49:22.026Z,94821.53
2018-01-08T05:51:49.695Z,94826.91
2018-01-08T05:54:17.446Z,94820.41
2018-01-08T05:56:45.179Z,94831.34
2018-01-08T05:59:12.884Z,94823.76
2018-01-08T06:01:40.670Z,94821.67
2018-01-08T06:04:09.135Z,94834.49
2018-01-08T06:06:36.843Z,94845.86
2018-01-08T06:09:04.600Z,94838.66
2018-01-08T06:11:32.407Z,94843.04
2018-01-08T06:14:00.124Z,94844.56
2018-01-08T06:16:27.832Z,94836.98
2018-01-08T06:18:55.612Z,94851.88
2018-01-08T06:21:23.355Z,94850.48
2018-01-08T06:23:51.152Z,94853.92
2018-01-08T06:26:18.841Z,94856.59
2018-01-08T06:28:46.602Z,94854.44
2018-01-08T06:31:14.341Z,94850.68
2018-01-08T06:33:42.089Z,94850.96
2018-01-08T06:36:09.865Z,94860.76
2018-01-08T06:38:37.560Z,94858.80
2018-01-08T06:41:05.726Z,94866.99
2018-01-08T06:43:33.496Z,94859.53
2018-01-08T06:46:01.725Z,94862.23
2018-01-08T06:48:29.504Z,94858.69
2018-01-08T06:50:57.393Z,94858.08
2018-01-08T06:53:25.086Z,94862.55
2018-01-08T06:55:52.806Z,94865.05
2018-01-08T06:58:20.534Z,94861.70
2018-01-08T07:00:48.318Z,94867.72
2018-01-08T07:03:16.098Z,94873.31
2018-01-08T07:05:43.831Z,94864.87
2018-01-08T07:08:11.627Z,94862.91
2018-01-08T07:10:39.345Z,94869.69
2018-01-08T07:13:07.086Z,94869.00
2018-01-08T07:15:34.863Z,94873.52
2018-01-08T07:18:02.598Z,94878.63
2018-01-08T07:20:30.324Z,94873.05
2018-01-08T07:22:58.077Z,94874.59
2018-01-08T07:25:25.777Z,94876.14
2018-01-08T07:27:53.463Z,94884.81
2018-01-08T07:30:21.176Z,94871.84
2018-01-08T07:32:48.972Z,94869.44
2018-01-08T07:35:16.768Z,94869.61
2018-01-08T07:37:44.460Z,94870.03
2018-01-08T07:40:12.180Z,94863.52
2018-01-08T07:42:39.919Z,94871.85
2018-01-08T07:45:07.688Z,94867.86
2018-01-08T07:47:35.510Z,94857.66
2018-01-08T07:50:03.296Z,94862.09
2018-01-08T07:52:31.121Z,94868.11
2018-01-08T07:54:58.829Z,94872.70
2018-01-08T07:57:26.541Z,94881.77
2018-01-08T07:59:54.335Z,94877.27
2018-01-08T08:02:22.028Z,94871.80
2018-01-08T08:04:49.741Z,94868.58
2018-01-08T08:07:17.493Z,94872.41
2018-01-08T08:09:45.189Z,94873.19
2018-01-08T08:12:12.952Z,94872.00
2018-01-08T08:14:40.705Z,94871.87
2018-01-08T08:17:08.424Z,94868.81
2018-01-08T08:19:36.194Z,94863.97
2018-01-08T08:22:03.926Z,94871.41
2018-01-08T08:24:31.800Z,94870.86
2018-01-08T08:26:59.529Z,94878.28
2018-01-08T08:29:27.320Z,94874.62
2018-01-08T08:31:55.159Z,94872.48
2018-01-08T08:34:22.865Z,94878.50
2018-01-08T08:36:50.616Z,94884.04
2018-01-08T08:39:18.348Z,94880.38
2018-01-08T08:41:46.039Z,94879.84
2018-01-08T08:44:13.777Z,94884.67
2018-01-08T08:46:41.502Z,94883.09
2018-01-08T08:49:09.265Z,94886.17
2018-01-08T08:51:37.076Z,94887.48
2018-01-08T08:54:04.826Z,94887.34
2018-01-08T08:56:32.566Z,94884.43
2018-01-08T08:59:00.276Z,94888.39
2018-01-08T09:01:27.975Z,94897.34
2018-01-08T09:03:56.020Z,94895.16
2018-01-08T09:06:23.724Z,94889.63
2018-01-08T09:08:51.588Z,94888.00
2018-01-08T09:11:19.340Z,94886.11
2018-01-08T09:13:47.047Z,94887.06
2018-01-08T09:16:14.841Z,94879.61
2018-01-08T09:18:42.528Z,94888.33
2018-01-08T09:21:10.299Z,94893.12
2018-01-08T09:23:38.493Z,94891.97
2018-01-08T09:26:06.250Z,94891.95
2018-01-08T09:28:34.004Z,94907.39
2018-01-08T09:31:01.777Z,94904.70
2018-01-08T09:33:30.433Z,94899.12
2018-01-08T09:35:58.186Z,94895.76
2018-01-08T09:38:26.136Z,94884.16
2018-01-08T09:40:53.924Z,94892.63
2018-01-08T09:43:21.629Z,94896.47
2018-01-08T09:45:49.539Z,94898.80
2018-01-08T09:48:17.765Z,94899.05
2018-01-08T09:50:45.578Z,94902.41
2018-01-08T09:53:13.402Z,94891.84
2018-01-08T09:55:41.271Z,94888.73
2018-01-08T09:58:09.001Z,94886.09
2018-01-08T10:00:38.031Z,94897.36
2018-01-08T10:03:17.397Z,94899.80
2018-01-08T10:05:57.008Z,94890.11
2018-01-08T10:08:36.295Z,94879.69
2018-01-08T10:11:15.790Z,94884.17
2018-01-08T10:13:55.164Z,94878.06
2018-01-08T10:16:34.768Z,94873.84
2018-01-08T10:19:14.288Z,94864.91
2018-01-08T10:21:42.131Z,94865.47
2018-01-08T10:24:09.915Z,94856.84
2018-01-08T10:26:37.933Z,94872.61
2018-01-08T10:29:05.761Z,94871.34
2018-01-08T10:31:33.518Z,94862.23
2018-01-08T10:34:01.275Z,94865.88
2018-01-08T10:36:29.054Z,94861.95
2018-01-08T10:38:56.932Z,94861.32
2018-01-08T10:41:30.262Z,94863.48
2018-01-08T10:44:03.402Z,94852.97
2018-01-08T10:46:37.687Z,94841.60
2018-01-08T10:49:11.110Z,94829.61
2018-01-08T10:51:41.382Z,94827.75
2018-01-08T10:54:09.183Z,94815.41
2018-01-08T10:56:36.949Z,94814.00
2018-01-08T10:59:04.664Z,94824.83
2018-01-08T11:01:37.964Z,94827.12
2018-01-08T11:04:05.668Z,94834.33
2018-01-08T11:06:33.433Z,94834.65
2018-01-08T11:09:01.226Z,94823.43
2018-01-08T11:11:29.021Z,94819.44
2018-01-08T11:13:56.869Z,94828.05
2018-01-08T11:16:24.637Z,94832.54
2018-01-08T11:18:52.424Z,94836.92
2018-01-08T11:21:20.213Z,94829.63
2018-01-08T11:23:47.965Z,94817.37
2018-01-08T11:26:15.795Z,94811.47
2018-01-08T11:28:43.551Z,94807.38
2018-01-08T11:31:11.260Z,94797.30
2018-01-08T11:33:39.040Z,94803.16
2018-01-08T11:36:07.062Z,94795.30
2018-01-08T11:38:34.856Z,94786.98
2018-01-08T11:41:02.664Z,94786.37
2018-01-08T11:43:30.507Z,94796.16
2018-01-08T11:45:58.341Z,94794.63
2018-01-08T11:48:26.138Z,94786.83
2018-01-08T11:50:53.978Z,94786.15
2018-01-08T11:53:22.358Z,94784.19
2018-01-08T11:55:50.122Z,94782.66
2018-01-08T11:58:17.963Z,94777.33
2018-01-08T12:00:45.796Z,94761.49
2018-01-08T12:03:13.618Z,94753.39
2018-01-08T12:05:41.425Z,94751.31
2018-01-08T12:08:09.392Z,94751.41
2018-01-08T12:10:37.230Z,94755.36
2018-01-08T12:13:04.991Z,94746.39
2018-01-08T12:15:32.841Z,94737.76
2018-01-08T12:18:00.593Z,94732.41
2018-01-08T12:20:28.394Z,94737.36
2018-01-08T12:22:56.157Z,94735.27
2018-01-08T12:25:23.927Z,94733.09
2018-01-08T12:27:51.656Z,94730.81
2018-01-08T12:30:19.424Z,94723.51
2018-01-08T12:32:47.244Z,94721.62
2018-01-08T12:35:15.024Z,94701.59
2018-01-08T12:37:42.788Z,94701.22
2018-01-08T12:40:11.368Z,94701.27
2018-01-08T12:42:39.085Z,94698.00
2018-01-08T12:45:06.827Z,94700.24
2018-01-08T12:47:34.565Z,94713.67
2018-01-08T12:50:02.320Z,94712.85
2018-01-08T12:52:30.043Z,94716.23
2018-01-08T12:54:57.766Z,94717.75
2018-01-08T12:57:25.663Z,94713.06
2018-01-08T12:59:53.364Z,94708.27
2018-01-08T13:02:21.190Z,94702.64
2018-01-08T13:04:49.015Z,94700.60
2018-01-08T13:07:17.036Z,94703.09
2018-01-08T13:09:44.828Z,94699.24
2018-01-08T13:12:12.531Z,94698.61
2018-01-08T13:14:40.335Z,94706.88
2018-01-08T13:17:08.257Z,94709.42
2018-01-08T13:19:36.148Z,94708.89
2018-01-08T13:22:03.899Z,94722.30
2018-01-08T13:24:31.879Z,94730.00
2018-01-08T13:26:59.634Z,94726.30
2018-01-08T13:29:27.468Z,94723.00
2018-01-08T13:31:55.241Z,94722.87
2018-01-08T13:34:23.089Z,94716.07
2018-01-08T13:36:50.846Z,94716.97
2018-01-08T13:39:18.682Z,94712.73
2018-01-08T13:41:46.552Z,94711.19
2018-01-08T13:44:14.292Z,94705.59
2018-01-08T13:46:42.976Z,94700.64
2018-01-08T13:49:10.726Z,94703.30
2018-01-08T13:51:38.567Z,94708.36
2018-01-08T13:54:06.277Z,94703.00
2018-01-08T13:56:34.132Z,94695.98
2018-01-08T13:59:01.918Z,94687.58
2018-01-08T14:01:29.792Z,94689.80
2018-01-08T14:03:57.630Z,94681.20
2018-01-08T14:06:25.491Z,94689.98
2018-01-08T14:08:53.300Z,94679.55
2018-01-08T14:11:21.145Z,94678.18
2018-01-08T14:13:48.904Z,94673.44
2018-01-08T14:16:16.725Z,94669.05
2018-01-08T14:18:44.446Z,94674.61
2018-01-08T14:21:12.138Z,94669.81
2018-01-08T14:23:39.925Z,94671.20
2018-01-08T14:26:07.726Z,94678.27
2018-01-08T14:28:35.557Z,94681.56
2018-01-08T14:31:03.378Z,94679.74
2018-01-08T14:33:31.127Z,94680.39
2018-01-08T14:35:58.906Z,94685.98
2018-01-08T14:38:27.804Z,94685.07
2018-01-08T14:40:55.577Z,94679.86
2018-01-08T14:43:23.807Z,94671.05
2018-01-08T14:45:51.732Z,94672.00
2018-01-08T14:48:20.700Z,94672.16
2018-01-08T14:50:48.568Z,94678.01
2018-01-08T14:53:16.839Z,94673.14
2018-01-08T14:55:44.575Z,94676.45
2018-01-08T14:58:12.356Z,94675.27
2018-01-08T15:00:40.097Z,94679.38
2018-01-08T15:03:07.884Z,94681.75
2018-01-08T15:05:35.614Z,94681.98
2018-01-08T15:08:03.380Z,94682.17
2018-01-08T15:10:31.315Z,94685.67
2018-01-08T15:12:59.186Z,94684.99
2018-01-08T15:15:27.236Z,94688.08
2018-01-08T15:17:54.993Z,94694.39
2018-01-08T15:20:22.900Z,94698.34
2018-01-08T15:22:50.610Z,94703.94
2018-01-08T15:25:19.178Z,94703.44
2018-01-08T15:27:47.988Z,94709.45
2018-01-08T15:30:15.809Z,94705.70
2018-01-08T15:32:44.197Z,94702.43
2018-01-08T15:35:12.833Z,94710.95
2018-01-08T15:37:40.595Z,94706.09
2018-01-08T15:40:08.438Z,94701.05
2018-01-08T15:42:36.278Z,94702.63
2018-01-08T15:45:04.225Z,94711.94
2018-01-08T15:47:32.075Z,94716.56
2018-01-08T15:49:59.824Z,94715.11
2018-01-08T15:52:28.817Z,94721.48
2018-01-08T15:54:56.653Z,94723.23
2018-01-08T15:57:24.428Z,94719.25
2018-01-08T15:59:52.129Z,94728.16
2018-01-08T16:02:19.952Z,94733.62
2018-01-08T16:04:47.771Z,94732.70
2018-01-08T16:07:15.667Z,94734.79
2018-01-08T16:09:43.580Z,94740.50
2018-01-08T16:12:11.402Z,94731.09
2018-01-08T16:14:39.270Z,94731.50
2018-01-08T16:17:07.032Z,94721.45
2018-01-08T16:19:34.878Z,94723.82
2018-01-08T16:22:02.645Z,94719.29
2018-01-08T16:24:32.638Z,94711.02
2018-01-08T16:27:01.127Z,94704.63
2018-01-08T16:29:28.865Z,94704.44
2018-01-08T16:31:56.641Z,94700.56
2018-01-08T16:34:24.411Z,94704.73
2018-01-08T16:36:53.165Z,94704.29
2018-01-08T16:39:21.092Z,94701.03
2018-01-08T16:41:49.700Z,94711.56
2018-01-08T16:44:17.586Z,94712.77
2018-01-08T16:46:45.416Z,94722.20
2018-01-08T16:49:13.156Z,94717.48
2018-01-08T16:51:41.019Z,94707.14
2018-01-08T16:54:09.236Z,94711.05
2018-01-08T16:56:37.106Z,94725.98
2018-01-08T16:59:05.727Z,94732.45
2018-01-08T17:01:33.823Z,94741.13
2018-01-08T17:04:01.944Z,94733.47
2018-01-08T17:06:29.748Z,94745.46
2018-01-08T17:08:57.570Z,94737.20
2018-01-08T17:11:25.331Z,94731.22
2018-01-08T17:13:53.047Z,94746.44
2018-01-08T17:16:20.836Z,94759.75
2018-01-08T17:18:48.681Z,94761.17
2018-01-08T17:21:17.705Z,94761.58
2018-01-08T17:23:45.471Z,94775.06
2018-01-08T17:26:13.514Z,94775.63
2018-01-08T17:28:41.411Z,94774.39
2018-01-08T17:31:09.260Z,94773.92
2018-01-08T17:33:38.508Z,94772.78
2018-01-08T17:36:06.976Z,94777.53
2018-01-08T17:38:34.786Z,94775.27
2018-01-08T17:41:02.615Z,94776.77
2018-01-08T17:43:30.359Z,94784.28
2018-01-08T17:45:58.299Z,94788.13
2018-01-08T17:48:26.112Z,94791.51
2018-01-08T17:50:53.878Z,94780.30
2018-01-08T17:53:21.804Z,94776.32
2018-01-08T17:55:49.645Z,94764.48
2018-01-08T17:58:17.464Z,94765.64
2018-01-08T18:00:45.265Z,94765.56
2018-01-08T18:03:13.075Z,94770.88
2018-01-08T18:05:40.908Z,94766.26
2018-01-08T18:08:09.824Z,94774.78
2018-01-08T18:10:37.934Z,94774.97
2018-01-08T18:13:05.864Z,94768.45
2018-01-08T18:15:33.654Z,94775.44
2018-01-08T18:18:01.604Z,94771.64
2018-01-08T18:20:29.422Z,94775.03
2018-01-08T18:22:57.327Z,94773.14
2018-01-08T18:25:25.071Z,94764.89
2018-01-08T18:27:52.869Z,94766.24
2018-01-08T18:30:20.724Z,94772.50
2018-01-08T18:32:48.592Z,94772.43
2018-01-08T18:35:16.426Z,94763.78
2018-01-08T18:37:44.350Z,94763.70
2018-01-08T18:40:12.093Z,94761.11
2018-01-08T18:42:40.090Z,94767.98
2018-01-08T18:45:08.168Z,94770.44
2018-01-08T18:47:36.224Z,94777.34
2018-01-08T18:50:04.186Z,94775.02
2018-01-08T18:52:32.038Z,94766.67
2018-01-08T18:55:00.058Z,94771.06
2018-01-08T18:57:28.299Z,94765.37
2018-01-08T18:59:56.430Z,94765.13
2018-01-08T19:02:24.940Z,94762.13
2018-01-08T19:04:53.387Z,94754.12
2018-01-08T19:07:21.403Z,94751.42
2018-01-08T19:09:49.754Z,94751.38
2018-01-08T19:12:19.817Z,94763.65
2018-01-08T19:14:48.539Z,94761.61
2018-01-08T19:17:20.225Z,94755.55
2018-01-08T19:19:48.356Z,94765.56
2018-01-08T19:22:16.402Z,94772.31
2018-01-08T19:24:45.780Z,94758.91
2018-01-08T19:27:13.596Z,94761.16
2018-01-08T19:29:41.743Z,94762.83
2018-01-08T19:32:11.803Z,94755.20
2018-01-08T19:34:41.357Z,94751.87
2018-01-08T19:37:09.304Z,94761.51
2018-01-08T19:39:37.091Z,94766.65
2018-01-08T19:42:05.213Z,94758.08
2018-01-08T19:44:33.296Z,94772.92
2018-01-08T19:47:01.099Z,94762.94
2018-01-08T19:49:28.899Z,94760.53
2018-01-08T19:51:56.686Z,94771.98
2018-01-08T19:54:24.442Z,94774.66
2018-01-08T19:56:52.249Z,94778.30
2018-01-08T19:59:20.018Z,94772.16
2018-01-08T20:01:47.822Z,94772.31
2018-01-08T20:04:17.021Z,94773.00
2018-01-08T20:06:45.088Z,94773.14
2018-01-08T20:09:14.978Z,94770.23
2018-01-08T20:11:42.995Z,94770.23
2018-01-08T20:14:11.346Z,94777.35
2018-01-08T20:16:39.236Z,94768.50
2018-01-08T20:19:07.024Z,94775.89
2018-01-08T20:21:35.016Z,94779.34
2018-01-08T20:24:02.762Z,94773.80
2018-01-08T20:26:30.607Z,94775.98
2018-01-08T20:28:58.380Z,94779.18
2018-01-08T20:31:26.494Z,94785.52
2018-01-08T20:33:54.526Z,94779.72
2018-01-08T20:36:25.187Z,94779.44
2018-01-08T20:38:52.910Z,94783.82
2018-01-08T20:41:20.819Z,94788.30
2018-01-08T20:43:48.891Z,94788.39
2018-01-08T20:46:16.783Z,94784.20
2018-01-08T20:48:44.877Z,94784.72
2018-01-08T20:51:12.712Z,94763.13
2018-01-08T20:53:43.497Z,94774.23
2018-01-08T20:56:11.286Z,94777.27
2018-01-08T20:58:39.011Z,94772.03
2018-01-08T21:01:06.854Z,94771.53
2018-01-08T21:03:35.886Z,94760.88
2018-01-08T21:06:04.069Z,94760.49
2018-01-08T21:08:32.222Z,94763.69
2018-01-08T21:11:01.034Z,94754.47
2018-01-08T21:13:29.675Z,94772.38
2018-01-08T21:15:59.562Z,94758.98
2018-01-08T21:18:27.397Z,94766.04
2018-01-08T21:20:55.198Z,94769.02
2018-01-08T21:23:23.043Z,94763.45
2018-01-08T21:25:50.840Z,94770.52
2018-01-08T21:28:19.203Z,94765.68
2018-01-08T21:30:47.270Z,94758.63
2018-01-08T21:33:15.150Z,94756.12
2018-01-08T21:35:43.680Z,94755.95
2018-01-08T21:38:11.559Z,94751.34
2018-01-08T21:40:39.883Z,94750.16
2018-01-08T21:43:07.798Z,94751.55
2018-01-08T21:45:35.515Z,94751.69
2018-01-08T21:48:03.318Z,94752.61
2018-01-08T21:50:31.297Z,94756.07
2018-01-08T21:53:02.087Z,94756.25
2018-01-08T21:55:29.887Z,94750.86
2018-01-08T21:57:58.867Z,94754.63
2018-01-08T22:00:26.828Z,94758.72
2018-01-08T22:02:57.724Z,94761.87
2018-01-08T22:05:25.612Z,94752.50
2018-01-08T22:07:53.545Z,94752.91
2018-01-08T22:10:21.273Z,94749.75
2018-01-08T22:12:49.632Z,94752.42
2018-01-08T22:15:17.481Z,94742.63
2018-01-08T22:17:46.896Z,94760.88
2018-01-08T22:20:15.465Z,94765.52
2018-01-08T22:22:43.275Z,94748.47
2018-01-08T22:25:11.109Z,94756.14
2018-01-08T22:27:39.705Z,94752.61
2018-01-08T22:30:08.075Z,94758.27
2018-01-08T22:32:36.549Z,94754.11
2018-01-08T22:35:04.265Z,94752.73
2018-01-08T22:37:32.068Z,94749.42
2018-01-08T22:39:59.964Z,94741.89
2018-01-08T22:42:27.669Z,94751.00
2018-01-08T22:44:55.486Z,94740.52
2018-01-08T22:47:23.780Z,94748.45
2018-01-08T22:49:51.556Z,94741.91
2018-01-08T22:52:19.351Z,94728.07
2018-01-08T22:54:47.101Z,94736.16
2018-01-08T22:57:14.947Z,94738.05
2018-01-08T22:59:42.714Z,94729.66
2018-01-08T23:02:10.536Z,94733.25
2018-01-08T23:04:38.426Z,94748.11
2018-01-08T23:07:06.894Z,94747.64
2018-01-08T23:09:34.761Z,94749.66
2018-01-08T23:12:02.570Z,94746.08
2018-01-08T23:14:30.387Z,94735.15
2018-01-08T23:16:58.211Z,94728.19
2018-01-08T23:19:25.966Z,94744.64
2018-01-08T23:21:53.727Z,94741.84
2018-01-08T23:24:21.488Z,94728.19
2018-01-08T23:26:49.264Z,94722.53
2018-01-08T23:29:17.124Z,94723.22
2018-01-08T23:31:45.362Z,94717.63
2018-01-08T23:34:13.164Z,94711.80
2018-01-08T23:36:41.001Z,94702.20
2018-01-08T23:39:08.801Z,94704.00
2018-01-08T23:41:36.692Z,94711.49
2018-01-08T23:44:04.429Z,94689.84
2018-01-08T23:46:32.217Z,94698.63
2018-01-08T23:49:00.070Z,94695.14
2018-01-08T23:51:27.934Z,94696.61
2018-01-08T23:53:55.640Z,94693.80
2018-01-08T23:56:23.388Z,94696.05
2018-01-08T23:58:51.166Z,94692.42
